Skip Navigation Links Skip Navigation Links

Current Weather

Butler County/K W Scholter Field, Butler, Penn.

For information only: do not use for flight planning or navigation.
Latest weather
Observation time Tuesday, January 26, 2021 7:36 PM EST
Local time Tuesday, January 26, 2021 8:00 PM EST
Flight conditions Marginal Visual Meteorological Conditions
Winds
Wind direction West (260°)
Wind speed 10 mph
Visibility 10 mi.
Sky condition
Ceiling 1,400 ft. overcast
Cloud layer overcast 1,400 ft.
Temperature 37°F
Dewpoint 36°F
Altimeter 29.82 in.Hg
Precipitation
Rain ended 7:02 PM
Precipitation last hour 0.01 in.
Derived measurements
Relative humidity 93%
Wind chill 30°F
Density altitude 13 ft.
Remarks
Fully automated report.
Automated weather observing station with precipitation discriminator.
METAR KBTP 270036Z AUTO 26009KT 10SM OVC014 03/02 A2982 RMK AO2 RAE02 P0001

Settings

Location code

InnerDrive.Weather 4.0.6770.0 Release CLR 4.0.30319.42000
Copyright ©2018 Inner Drive Technology. All rights reserved. Portions Copyright ©1986-2018 David Braverman.

Find weather

Site navigation


Skip Navigation Links

Place info

Page info

PayPal - The safer, easier way to pay online!

Return home.

Copyright ©2021 Inner Drive Technology. Purveyors of fine, hand-crafted computer software. Page printed 2021-01-27T01:00:17 UTC.